Yankton, SD (57078)

16:39 CST le 27 février 2015 (GMT -0600)
Gurney Municipal | Change Station
CLOSE
Current Station
Aéroport
Location: Yankton,
Altitude: 1306 ft
Stations météo à proximité

Alt. 1306 ft 42.92 °N, 97.39 °W | Updated 4 minutes ago

Clear
Ciel dégagé
21 ° F
Paraît 11 ° F
N
9
Vent Variable Vent de Sud

Aujourd'hui
Haut(e) -- | Bas -- ° F
--% Risque de précip.
Hier
Haut(e) -- | Bas -- ° F
Precip. -- pouce
7:08 AM 6:16 PM
Lune gibbeuse croissante, 72% visible
Pression 30.43 pouce
Visibilité 10.0 Miles terrestres
Nuages Ciel dégagé
Refroidissement éolien 11 ° F
Point de rosée 1 ° F
Humidité 42%
Précipitations 0.00 pouce
Profondeur de la couche neigeuse Non disponible.
UV 1 sur 12
Pollen .30 sur 12
Qualité de l'air Non disponible.
Flu Activity Non disponible.
METAR KYKN 272235Z AUTO 17008KT 10SM CLR M06/M17 A3043 RMK AO1

More Conditions Fewer Conditions

Pression 30.43 pouce
Visibilité 10.0 Miles terrestres
Nuages Ciel dégagé
Refroidissement éolien 11 ° F
Point de rosée 1 ° F
Humidité 42%
Précipitations 0.00 pouce
Profondeur de la couche neigeuse Non disponible.
UV 1 sur 12
Pollen .30 sur 12
Qualité de l'air Non disponible.
Flu Activity Non disponible.
METAR KYKN 272235Z AUTO 17008KT 10SM CLR M06/M17 A3043 RMK AO1

More Conditions Fewer Conditions

10-Day Weather Forecast

Almanac

Astronomie

Feb. 27, 2015 Lever Coucher
Temps réel
Crépuscule civil
Crépuscule nautique
Crépuscule astronomique
Lune
Durée de lumière visible
Longueur du jour
Tomorrow will be .
, % of the Moon is Illuminated

Extrêmes aujourd'hui

State Highs State Lows

Community

WunderPhotos

Upload Photos

1,800,852 Photos téléchargées !

WunderBlogs® & News

Nearby

Qualité de l'air

  Qualité de l'air Indice de la qualité de l'air Polluant
Not available.

Épaisseur de neige

Station Depth Altitude

Activité sismique

Ville Distance Mag. Time & Date
Minimum magnitude displayed is 2.5.

Températures des eaux côtières

Lieu Température

Stations météo à proximité